PWSweather.com
Personal Weather Stations
Station Observations
WHHZ1080
Hladke ZivoticeCZ 742 47

Hladke ZivoticeCZ 742 47

Lat: 49.6818201, Lon: 17.94963610000002

Elevation: 282

Station Type: Davis Vantage Vue

http://wh1080.m-zone.cz/

Latest ConditionsUpdated 11:05:01 PM GMT+01:01 Saturday, Feb 23, 2019
Currently Today's Max Today's Min Today's Average
Temperature 23.5°F-4.7°C 30.4°F-0.9°C 19.9°F-6.7°C 25.4°F-3.7°C
Dew Point 17.1°F-8.3°C 19.5°F-6.9°C 13.1°F-10.5°C 15.6°F-9.1°C
Winds Calm Calm 11.0 mph -17.7 kmh - - 4.8 mph 7.7 kmh
Wind Gusts 1.0 mph1.6 kmh 19.0 mph30.6 kmh - -
Humidity 76% 76% 53% 67%
Pressure 30.86 in1045.0 mb 30.96 in1048.4 mb 30.85 in1044.7 mb -
Hour Temp Dew Point Humidity Winds Wind Gusts Pressure Precip Precip Rate Daily Precip Total
11:05 PM 23.5°F-4.7°C 17.1°F-8.3°C 76% Calm Calm 1.0 mph1.6 kmh 30.86 in1045.0 mb 0.00 in0.0 mm 0.00 in0.0 mm 0.00 in0.0 mm
11:00 PM 23.7°F-4.6°C 17.3°F-8.2°C 76% 1.0 mph WNW1.6 kmh WNW 1.0 mph1.6 kmh 30.86 in1045.0 mb 0.00 in0.0 mm 0.00 in0.0 mm 0.00 in0.0 mm
10:55 PM 23.9°F-4.5°C 17.4°F-8.1°C 76% 1.0 mph WNW1.6 kmh WNW 2.0 mph3.2 kmh 30.86 in1045.0 mb 0.00 in0.0 mm 0.00 in0.0 mm 0.00 in0.0 mm
10:50 PM 24.1°F-4.4°C 17.6°F-8.0°C 76% 1.0 mph NW1.6 kmh NW 2.0 mph3.2 kmh 30.86 in1045.0 mb 0.00 in0.0 mm 0.00 in0.0 mm 0.00 in0.0 mm
10:45 PM 24.1°F-4.4°C 17.3°F-8.2°C 75% 1.0 mph NW1.6 kmh NW 3.0 mph4.8 kmh 30.86 in1045.0 mb 0.00 in0.0 mm 0.00 in0.0 mm 0.00 in0.0 mm
10:40 PM 24.3°F-4.3°C 17.5°F-8.1°C 75% Calm Calm 3.0 mph4.8 kmh 30.86 in1045.0 mb 0.00 in0.0 mm 0.00 in0.0 mm 0.00 in0.0 mm
10:35 PM 24.1°F-4.4°C 17.3°F-8.2°C 75% Calm Calm -- 30.86 in1045.0 mb 0.00 in0.0 mm 0.00 in0.0 mm 0.00 in0.0 mm
10:30 PM 24.1°F-4.4°C 17.3°F-8.2°C 75% Calm Calm -- 30.85 in1044.7 mb 0.00 in0.0 mm 0.00 in0.0 mm 0.00 in0.0 mm
10:25 PM 24.3°F-4.3°C 17.8°F-7.9°C 76% Calm Calm 1.0 mph1.6 kmh 30.86 in1045.0 mb 0.00 in0.0 mm 0.00 in0.0 mm 0.00 in0.0 mm
10:20 PM 24.4°F-4.2°C 17.6°F-8.0°C 75% Calm Calm 2.0 mph3.2 kmh 30.85 in1044.7 mb 0.00 in0.0 mm 0.00 in0.0 mm 0.00 in0.0 mm
10:15 PM 24.6°F-4.1°C 17.8°F-7.9°C 75% Calm Calm 2.0 mph3.2 kmh 30.85 in1044.7 mb 0.00 in0.0 mm 0.00 in0.0 mm 0.00 in0.0 mm
10:10 PM 24.8°F-4.0°C 18.0°F-7.8°C 75% Calm Calm -- 30.85 in1044.7 mb 0.00 in0.0 mm 0.00 in0.0 mm 0.00 in0.0 mm
10:05 PM 25.0°F-3.9°C 18.2°F-7.7°C 75% Calm Calm -- 30.85 in1044.7 mb 0.00 in0.0 mm 0.00 in0.0 mm 0.00 in0.0 mm
10:00 PM 25.3°F-3.7°C 18.2°F-7.7°C 74% Calm Calm -- 30.85 in1044.7 mb 0.00 in0.0 mm 0.00 in0.0 mm 0.00 in0.0 mm
09:55 PM 25.7°F-3.5°C 18.2°F-7.7°C 73% Calm Calm -- 30.85 in1044.7 mb 0.00 in0.0 mm 0.00 in0.0 mm 0.00 in0.0 mm
09:50 PM 25.9°F-3.4°C 18.1°F-7.7°C 72% Calm Calm -- 30.86 in1045.0 mb 0.00 in0.0 mm 0.00 in0.0 mm 0.00 in0.0 mm
09:45 PM 26.1°F-3.3°C 18.3°F-7.6°C 72% Calm Calm -- 30.85 in1044.7 mb 0.00 in0.0 mm 0.00 in0.0 mm 0.00 in0.0 mm
09:40 PM 26.2°F-3.2°C 18.4°F-7.6°C 72% Calm Calm -- 30.85 in1044.7 mb 0.00 in0.0 mm 0.00 in0.0 mm 0.00 in0.0 mm
09:35 PM 26.4°F-3.1°C 18.3°F-7.6°C 71% Calm Calm -- 30.85 in1044.7 mb 0.00 in0.0 mm 0.00 in0.0 mm 0.00 in0.0 mm
09:30 PM 26.4°F-3.1°C 18.3°F-7.6°C 71% Calm Calm -- 30.85 in1044.7 mb 0.00 in0.0 mm 0.00 in0.0 mm 0.00 in0.0 mm
09:25 PM 26.8°F-2.9°C 19.3°F-7.1°C 73% Calm Calm -- 30.85 in1044.7 mb 0.00 in0.0 mm 0.00 in0.0 mm 0.00 in0.0 mm
09:20 PM 27.0°F-2.8°C 19.5°F-6.9°C 73% Calm Calm -- 30.85 in1044.7 mb 0.00 in0.0 mm 0.00 in0.0 mm 0.00 in0.0 mm
09:15 PM 27.0°F-2.8°C 19.5°F-6.9°C 73% Calm Calm 1.0 mph1.6 kmh 30.85 in1044.7 mb 0.00 in0.0 mm 0.00 in0.0 mm 0.00 in0.0 mm
09:10 PM 27.1°F-2.7°C 19.3°F-7.1°C 72% 1.0 mph NW1.6 kmh NW 1.0 mph1.6 kmh 30.86 in1045.0 mb 0.00 in0.0 mm 0.00 in0.0 mm 0.00 in0.0 mm
09:05 PM 27.1°F-2.7°C 19.0°F-7.2°C 71% 1.0 mph NW1.6 kmh NW 2.0 mph3.2 kmh 30.86 in1045.0 mb 0.00 in0.0 mm 0.00 in0.0 mm 0.00 in0.0 mm
09:00 PM 27.1°F-2.7°C 19.0°F-7.2°C 71% 2.0 mph NNW3.2 kmh NNW 3.0 mph4.8 kmh 30.86 in1045.0 mb 0.00 in0.0 mm 0.00 in0.0 mm 0.00 in0.0 mm
08:55 PM 27.1°F-2.7°C 19.0°F-7.2°C 71% 2.0 mph NNW3.2 kmh NNW 4.0 mph6.4 kmh 30.86 in1045.0 mb 0.00 in0.0 mm 0.00 in0.0 mm 0.00 in0.0 mm
08:50 PM 27.0°F-2.8°C 18.8°F-7.3°C 71% 1.0 mph NNW1.6 kmh NNW 4.0 mph6.4 kmh 30.86 in1045.0 mb 0.00 in0.0 mm 0.00 in0.0 mm 0.00 in0.0 mm
08:45 PM 26.8°F-2.9°C 19.3°F-7.1°C 73% 1.0 mph NW1.6 kmh NW 3.0 mph4.8 kmh 30.86 in1045.0 mb 0.00 in0.0 mm 0.00 in0.0 mm 0.00 in0.0 mm
08:40 PM 26.4°F-3.1°C 18.6°F-7.4°C 72% 1.0 mph NNW1.6 kmh NNW 2.0 mph3.2 kmh 30.86 in1045.0 mb 0.00 in0.0 mm 0.00 in0.0 mm 0.00 in0.0 mm
08:35 PM 26.4°F-3.1°C 18.3°F-7.6°C 71% Calm Calm 2.0 mph3.2 kmh 30.86 in1045.0 mb 0.00 in0.0 mm 0.00 in0.0 mm 0.00 in0.0 mm
08:30 PM 26.2°F-3.2°C 17.4°F-8.1°C 69% Calm Calm 1.0 mph1.6 kmh 30.85 in1044.7 mb 0.00 in0.0 mm 0.00 in0.0 mm 0.00 in0.0 mm
08:25 PM 26.2°F-3.2°C 17.8°F-7.9°C 70% Calm Calm 1.0 mph1.6 kmh 30.85 in1044.7 mb 0.00 in0.0 mm 0.00 in0.0 mm 0.00 in0.0 mm
08:20 PM 26.2°F-3.2°C 17.4°F-8.1°C 69% Calm Calm -- 30.85 in1044.7 mb 0.00 in0.0 mm 0.00 in0.0 mm 0.00 in0.0 mm
08:15 PM 26.4°F-3.1°C 17.6°F-8.0°C 69% Calm Calm 1.0 mph1.6 kmh 30.85 in1044.7 mb 0.00 in0.0 mm 0.00 in0.0 mm 0.00 in0.0 mm
08:10 PM 26.8°F-2.9°C 18.0°F-7.8°C 69% 1.0 mph NE1.6 kmh NE 2.0 mph3.2 kmh 30.85 in1044.7 mb 0.00 in0.0 mm 0.00 in0.0 mm 0.00 in0.0 mm
08:05 PM 26.8°F-2.9°C 17.6°F-8.0°C 68% 1.0 mph NE1.6 kmh NE 2.0 mph3.2 kmh 30.86 in1045.0 mb 0.00 in0.0 mm 0.00 in0.0 mm 0.00 in0.0 mm
08:00 PM 27.0°F-2.8°C 17.8°F-7.9°C 68% 2.0 mph NE3.2 kmh NE 4.0 mph6.4 kmh 30.86 in1045.0 mb 0.00 in0.0 mm 0.00 in0.0 mm 0.00 in0.0 mm
07:55 PM 27.0°F-2.8°C 17.5°F-8.1°C 67% 2.0 mph NE3.2 kmh NE 5.0 mph8.0 kmh 30.86 in1045.0 mb 0.00 in0.0 mm 0.00 in0.0 mm 0.00 in0.0 mm
07:50 PM 27.0°F-2.8°C 17.5°F-8.1°C 67% 2.0 mph NE3.2 kmh NE 5.0 mph8.0 kmh 30.86 in1045.0 mb 0.00 in0.0 mm 0.00 in0.0 mm 0.00 in0.0 mm
07:45 PM 27.1°F-2.7°C 17.6°F-8.0°C 67% 2.0 mph NE3.2 kmh NE 5.0 mph8.0 kmh 30.86 in1045.0 mb 0.00 in0.0 mm 0.00 in0.0 mm 0.00 in0.0 mm
07:40 PM 27.1°F-2.7°C 17.6°F-8.0°C 67% 2.0 mph NE3.2 kmh NE 4.0 mph6.4 kmh 30.87 in1045.4 mb 0.00 in0.0 mm 0.00 in0.0 mm 0.00 in0.0 mm
07:35 PM 27.3°F-2.6°C 17.8°F-7.9°C 67% 2.0 mph NE3.2 kmh NE 4.0 mph6.4 kmh 30.86 in1045.0 mb 0.00 in0.0 mm 0.00 in0.0 mm 0.00 in0.0 mm
07:30 PM 27.7°F-2.4°C 18.1°F-7.7°C 67% 2.0 mph NE3.2 kmh NE 4.0 mph6.4 kmh 30.86 in1045.0 mb 0.00 in0.0 mm 0.00 in0.0 mm 0.00 in0.0 mm
07:25 PM 27.7°F-2.4°C 18.5°F-7.5°C 68% 2.0 mph NE3.2 kmh NE 4.0 mph6.4 kmh 30.86 in1045.0 mb 0.00 in0.0 mm 0.00 in0.0 mm 0.00 in0.0 mm
07:20 PM 27.9°F-2.3°C 18.7°F-7.4°C 68% 2.0 mph NE3.2 kmh NE 5.0 mph8.0 kmh 30.86 in1045.0 mb 0.00 in0.0 mm 0.00 in0.0 mm 0.00 in0.0 mm
07:15 PM 28.0°F-2.2°C 19.2°F-7.1°C 69% 2.0 mph NE3.2 kmh NE 5.0 mph8.0 kmh 30.87 in1045.4 mb 0.00 in0.0 mm 0.00 in0.0 mm 0.00 in0.0 mm
07:10 PM 28.2°F-2.1°C 19.0°F-7.2°C 68% 3.0 mph NE4.8 kmh NE 5.0 mph8.0 kmh 30.86 in1045.0 mb 0.00 in0.0 mm 0.00 in0.0 mm 0.00 in0.0 mm
07:05 PM 28.6°F-1.9°C 18.3°F-7.6°C 65% 3.0 mph NE4.8 kmh NE 6.0 mph9.7 kmh 30.86 in1045.0 mb 0.00 in0.0 mm 0.00 in0.0 mm 0.00 in0.0 mm
07:00 PM 28.8°F-1.8°C 18.5°F-7.5°C 65% 3.0 mph NE4.8 kmh NE 6.0 mph9.7 kmh 30.86 in1045.0 mb 0.00 in0.0 mm 0.00 in0.0 mm 0.00 in0.0 mm
06:55 PM 28.8°F-1.8°C 18.5°F-7.5°C 65% 4.0 mph NE6.4 kmh NE 7.0 mph11.3 kmh 30.86 in1045.0 mb 0.00 in0.0 mm 0.00 in0.0 mm 0.00 in0.0 mm
06:50 PM 28.9°F-1.7°C 18.3°F-7.6°C 64% 4.0 mph NE6.4 kmh NE 9.0 mph14.5 kmh 30.87 in1045.4 mb 0.00 in0.0 mm 0.00 in0.0 mm 0.00 in0.0 mm
06:45 PM 28.9°F-1.7°C 17.9°F-7.8°C 63% 5.0 mph NE8.0 kmh NE 9.0 mph14.5 kmh 30.87 in1045.4 mb 0.00 in0.0 mm 0.00 in0.0 mm 0.00 in0.0 mm
06:40 PM 28.9°F-1.7°C 17.9°F-7.8°C 63% 5.0 mph NE8.0 kmh NE 10.0 mph16.1 kmh 30.87 in1045.4 mb 0.00 in0.0 mm 0.00 in0.0 mm 0.00 in0.0 mm
06:35 PM 28.9°F-1.7°C 17.5°F-8.1°C 62% 5.0 mph NE8.0 kmh NE 10.0 mph16.1 kmh 30.87 in1045.4 mb 0.00 in0.0 mm 0.00 in0.0 mm 0.00 in0.0 mm
06:30 PM 28.9°F-1.7°C 17.9°F-7.8°C 63% 5.0 mph NE8.0 kmh NE 10.0 mph16.1 kmh 30.87 in1045.4 mb 0.00 in0.0 mm 0.00 in0.0 mm 0.00 in0.0 mm
06:25 PM 28.9°F-1.7°C 17.5°F-8.1°C 62% 4.0 mph NE6.4 kmh NE 10.0 mph16.1 kmh 30.87 in1045.4 mb 0.00 in0.0 mm 0.00 in0.0 mm 0.00 in0.0 mm
06:20 PM 28.9°F-1.7°C 17.9°F-7.8°C 63% 5.0 mph NE8.0 kmh NE 9.0 mph14.5 kmh 30.86 in1045.0 mb 0.00 in0.0 mm 0.00 in0.0 mm 0.00 in0.0 mm
06:15 PM 28.9°F-1.7°C 17.9°F-7.8°C 63% 4.0 mph NE6.4 kmh NE 9.0 mph14.5 kmh 30.86 in1045.0 mb 0.00 in0.0 mm 0.00 in0.0 mm 0.00 in0.0 mm
06:10 PM 28.9°F-1.7°C 17.9°F-7.8°C 63% 4.0 mph NE6.4 kmh NE 9.0 mph14.5 kmh 30.86 in1045.0 mb 0.00 in0.0 mm 0.00 in0.0 mm 0.00 in0.0 mm
06:05 PM 28.9°F-1.7°C 17.9°F-7.8°C 63% 4.0 mph NE6.4 kmh NE 8.0 mph12.9 kmh 30.87 in1045.4 mb 0.00 in0.0 mm 0.00 in0.0 mm 0.00 in0.0 mm
06:00 PM 28.9°F-1.7°C 17.9°F-7.8°C 63% 4.0 mph NE6.4 kmh NE 8.0 mph12.9 kmh 30.86 in1045.0 mb 0.00 in0.0 mm 0.00 in0.0 mm 0.00 in0.0 mm
05:55 PM 28.9°F-1.7°C 17.9°F-7.8°C 63% 4.0 mph NE6.4 kmh NE 8.0 mph12.9 kmh 30.86 in1045.0 mb 0.00 in0.0 mm 0.00 in0.0 mm 0.00 in0.0 mm
05:50 PM 28.9°F-1.7°C 17.9°F-7.8°C 63% 5.0 mph NE8.0 kmh NE 8.0 mph12.9 kmh 30.86 in1045.0 mb 0.00 in0.0 mm 0.00 in0.0 mm 0.00 in0.0 mm
05:45 PM 28.9°F-1.7°C 17.9°F-7.8°C 63% 5.0 mph NE8.0 kmh NE 8.0 mph12.9 kmh 30.86 in1045.0 mb 0.00 in0.0 mm 0.00 in0.0 mm 0.00 in0.0 mm
05:40 PM 28.9°F-1.7°C 17.5°F-8.1°C 62% 5.0 mph NE8.0 kmh NE 8.0 mph12.9 kmh 30.86 in1045.0 mb 0.00 in0.0 mm 0.00 in0.0 mm 0.00 in0.0 mm
05:35 PM 28.9°F-1.7°C 17.5°F-8.1°C 62% 5.0 mph NE8.0 kmh NE 10.0 mph16.1 kmh 30.86 in1045.0 mb 0.00 in0.0 mm 0.00 in0.0 mm 0.00 in0.0 mm
05:30 PM 28.9°F-1.7°C 17.5°F-8.1°C 62% 5.0 mph NE8.0 kmh NE 10.0 mph16.1 kmh 30.87 in1045.4 mb 0.00 in0.0 mm 0.00 in0.0 mm 0.00 in0.0 mm
05:25 PM 28.9°F-1.7°C 17.5°F-8.1°C 62% 5.0 mph NE8.0 kmh NE 10.0 mph16.1 kmh 30.87 in1045.4 mb 0.00 in0.0 mm 0.00 in0.0 mm 0.00 in0.0 mm
05:20 PM 28.9°F-1.7°C 17.5°F-8.1°C 62% 5.0 mph NE8.0 kmh NE 10.0 mph16.1 kmh 30.87 in1045.4 mb 0.00 in0.0 mm 0.00 in0.0 mm 0.00 in0.0 mm
05:15 PM 28.9°F-1.7°C 17.2°F-8.2°C 61% 5.0 mph NE8.0 kmh NE 9.0 mph14.5 kmh 30.87 in1045.4 mb 0.00 in0.0 mm 0.00 in0.0 mm 0.00 in0.0 mm
05:10 PM 29.1°F-1.6°C 17.7°F-7.9°C 62% 5.0 mph NE8.0 kmh NE 10.0 mph16.1 kmh 30.87 in1045.4 mb 0.00 in0.0 mm 0.00 in0.0 mm 0.00 in0.0 mm
05:05 PM 29.1°F-1.6°C 17.3°F-8.2°C 61% 5.0 mph NNE8.0 kmh NNE 10.0 mph16.1 kmh 30.87 in1045.4 mb 0.00 in0.0 mm 0.00 in0.0 mm 0.00 in0.0 mm
05:00 PM 29.1°F-1.6°C 17.3°F-8.2°C 61% 5.0 mph NE8.0 kmh NE 10.0 mph16.1 kmh 30.87 in1045.4 mb 0.00 in0.0 mm 0.00 in0.0 mm 0.00 in0.0 mm
04:55 PM 29.3°F-1.5°C 17.1°F-8.3°C 60% 5.0 mph NE8.0 kmh NE 10.0 mph16.1 kmh 30.87 in1045.4 mb 0.00 in0.0 mm 0.00 in0.0 mm 0.00 in0.0 mm
04:50 PM 29.5°F-1.4°C 17.3°F-8.2°C 60% 6.0 mph NE9.7 kmh NE 8.0 mph12.9 kmh 30.87 in1045.4 mb 0.00 in0.0 mm 0.00 in0.0 mm 0.00 in0.0 mm
04:45 PM 29.5°F-1.4°C 17.3°F-8.2°C 60% 6.0 mph NE9.7 kmh NE 10.0 mph16.1 kmh 30.87 in1045.4 mb 0.00 in0.0 mm 0.00 in0.0 mm 0.00 in0.0 mm
04:40 PM 29.5°F-1.4°C 16.5°F-8.6°C 58% 6.0 mph NE9.7 kmh NE 12.0 mph19.3 kmh 30.87 in1045.4 mb 0.00 in0.0 mm 0.00 in0.0 mm 0.00 in0.0 mm
04:35 PM 29.5°F-1.4°C 16.1°F-8.8°C 57% 7.0 mph NE11.3 kmh NE 12.0 mph19.3 kmh 30.87 in1045.4 mb 0.00 in0.0 mm 0.00 in0.0 mm 0.00 in0.0 mm
04:30 PM 29.7°F-1.3°C 16.3°F-8.7°C 57% 7.0 mph NE11.3 kmh NE 11.0 mph17.7 kmh 30.86 in1045.0 mb 0.00 in0.0 mm 0.00 in0.0 mm 0.00 in0.0 mm
04:25 PM 29.8°F-1.2°C 16.4°F-8.7°C 57% 7.0 mph NE11.3 kmh NE 12.0 mph19.3 kmh 30.87 in1045.4 mb 0.00 in0.0 mm 0.00 in0.0 mm 0.00 in0.0 mm
04:20 PM 30.0°F-1.1°C 16.2°F-8.8°C 56% 7.0 mph NE11.3 kmh NE 14.0 mph22.5 kmh 30.87 in1045.4 mb 0.00 in0.0 mm 0.00 in0.0 mm 0.00 in0.0 mm
04:15 PM 30.0°F-1.1°C 15.8°F-9.0°C 55% 8.0 mph NE12.9 kmh NE 14.0 mph22.5 kmh 30.87 in1045.4 mb 0.00 in0.0 mm 0.00 in0.0 mm 0.00 in0.0 mm
04:10 PM 30.0°F-1.1°C 15.4°F-9.2°C 54% 9.0 mph NE14.5 kmh NE 15.0 mph24.1 kmh 30.87 in1045.4 mb 0.00 in0.0 mm 0.00 in0.0 mm 0.00 in0.0 mm
04:05 PM 30.2°F-1.0°C 15.5°F-9.2°C 54% 8.0 mph NE12.9 kmh NE 15.0 mph24.1 kmh 30.87 in1045.4 mb 0.00 in0.0 mm 0.00 in0.0 mm 0.00 in0.0 mm
04:00 PM 30.0°F-1.1°C 15.4°F-9.2°C 54% 8.0 mph NE12.9 kmh NE 15.0 mph24.1 kmh 30.87 in1045.4 mb 0.00 in0.0 mm 0.00 in0.0 mm 0.00 in0.0 mm
03:55 PM 30.4°F-0.9°C 15.7°F-9.1°C 54% 8.0 mph NE12.9 kmh NE 15.0 mph24.1 kmh 30.87 in1045.4 mb 0.00 in0.0 mm 0.00 in0.0 mm 0.00 in0.0 mm
03:50 PM 30.4°F-0.9°C 15.3°F-9.3°C 53% 8.0 mph NE12.9 kmh NE 15.0 mph24.1 kmh 30.87 in1045.4 mb 0.00 in0.0 mm 0.00 in0.0 mm 0.00 in0.0 mm
03:45 PM 30.4°F-0.9°C 15.7°F-9.1°C 54% 8.0 mph NE12.9 kmh NE 15.0 mph24.1 kmh 30.87 in1045.4 mb 0.00 in0.0 mm 0.00 in0.0 mm 0.00 in0.0 mm
03:40 PM 30.2°F-1.0°C 15.1°F-9.4°C 53% 8.0 mph NE12.9 kmh NE 13.0 mph20.9 kmh 30.87 in1045.4 mb 0.00 in0.0 mm 0.00 in0.0 mm 0.00 in0.0 mm
03:35 PM 30.0°F-1.1°C 15.4°F-9.2°C 54% 8.0 mph NE12.9 kmh NE 13.0 mph20.9 kmh 30.87 in1045.4 mb 0.00 in0.0 mm 0.00 in0.0 mm 0.00 in0.0 mm
03:30 PM 29.8°F-1.2°C 15.2°F-9.3°C 54% 8.0 mph NE12.9 kmh NE 13.0 mph20.9 kmh 30.87 in1045.4 mb 0.00 in0.0 mm 0.00 in0.0 mm 0.00 in0.0 mm
03:25 PM 29.8°F-1.2°C 15.6°F-9.1°C 55% 8.0 mph NE12.9 kmh NE 14.0 mph22.5 kmh 30.87 in1045.4 mb 0.00 in0.0 mm 0.00 in0.0 mm 0.00 in0.0 mm
03:20 PM 29.8°F-1.2°C 15.2°F-9.3°C 54% 7.0 mph NE11.3 kmh NE 14.0 mph22.5 kmh 30.87 in1045.4 mb 0.00 in0.0 mm 0.00 in0.0 mm 0.00 in0.0 mm
03:15 PM 29.8°F-1.2°C 15.2°F-9.3°C 54% 7.0 mph NE11.3 kmh NE 13.0 mph20.9 kmh 30.88 in1045.7 mb 0.00 in0.0 mm 0.00 in0.0 mm 0.00 in0.0 mm
03:10 PM 30.0°F-1.1°C 15.8°F-9.0°C 55% 6.0 mph NE9.7 kmh NE 12.0 mph19.3 kmh 30.87 in1045.4 mb 0.00 in0.0 mm 0.00 in0.0 mm 0.00 in0.0 mm
03:05 PM 30.0°F-1.1°C 16.6°F-8.6°C 57% 6.0 mph NE9.7 kmh NE 12.0 mph19.3 kmh 30.87 in1045.4 mb 0.00 in0.0 mm 0.00 in0.0 mm 0.00 in0.0 mm
03:00 PM 29.8°F-1.2°C 15.6°F-9.1°C 55% 7.0 mph NE11.3 kmh NE 11.0 mph17.7 kmh 30.88 in1045.7 mb 0.00 in0.0 mm 0.00 in0.0 mm 0.00 in0.0 mm
02:55 PM 29.8°F-1.2°C 15.6°F-9.1°C 55% 8.0 mph NE12.9 kmh NE 14.0 mph22.5 kmh 30.88 in1045.7 mb 0.00 in0.0 mm 0.00 in0.0 mm 0.00 in0.0 mm
02:50 PM 29.7°F-1.3°C 15.0°F-9.4°C 54% 8.0 mph NE12.9 kmh NE 14.0 mph22.5 kmh 30.88 in1045.7 mb 0.00 in0.0 mm 0.00 in0.0 mm 0.00 in0.0 mm
02:45 PM 29.7°F-1.3°C 15.5°F-9.2°C 55% 7.0 mph NE11.3 kmh NE 14.0 mph22.5 kmh 30.88 in1045.7 mb 0.00 in0.0 mm 0.00 in0.0 mm 0.00 in0.0 mm
02:40 PM 29.3°F-1.5°C 15.1°F-9.4°C 55% 6.0 mph NE9.7 kmh NE 14.0 mph22.5 kmh 30.87 in1045.4 mb 0.00 in0.0 mm 0.00 in0.0 mm 0.00 in0.0 mm
02:35 PM 28.9°F-1.7°C 14.8°F-9.6°C 55% 7.0 mph NE11.3 kmh NE 12.0 mph19.3 kmh 30.88 in1045.7 mb 0.00 in0.0 mm 0.00 in0.0 mm 0.00 in0.0 mm
02:30 PM 28.9°F-1.7°C 15.6°F-9.1°C 57% 6.0 mph NE9.7 kmh NE 12.0 mph19.3 kmh 30.88 in1045.7 mb 0.00 in0.0 mm 0.00 in0.0 mm 0.00 in0.0 mm
02:25 PM 29.1°F-1.6°C 15.4°F-9.2°C 56% 6.0 mph NE9.7 kmh NE 12.0 mph19.3 kmh 30.88 in1045.7 mb 0.00 in0.0 mm 0.00 in0.0 mm 0.00 in0.0 mm
02:20 PM 29.1°F-1.6°C 14.5°F-9.7°C 54% 7.0 mph NE11.3 kmh NE 12.0 mph19.3 kmh 30.88 in1045.7 mb 0.00 in0.0 mm 0.00 in0.0 mm 0.00 in0.0 mm
02:15 PM 29.1°F-1.6°C 15.4°F-9.2°C 56% 7.0 mph NE11.3 kmh NE 12.0 mph19.3 kmh 30.88 in1045.7 mb 0.00 in0.0 mm 0.00 in0.0 mm 0.00 in0.0 mm
02:10 PM 29.1°F-1.6°C 14.9°F-9.5°C 55% 7.0 mph NE11.3 kmh NE 12.0 mph19.3 kmh 30.88 in1045.7 mb 0.00 in0.0 mm 0.00 in0.0 mm 0.00 in0.0 mm
02:05 PM 28.9°F-1.7°C 15.2°F-9.3°C 56% 6.0 mph NE9.7 kmh NE 11.0 mph17.7 kmh 30.88 in1045.7 mb 0.00 in0.0 mm 0.00 in0.0 mm 0.00 in0.0 mm
02:00 PM 28.8°F-1.8°C 15.0°F-9.4°C 56% 6.0 mph NE9.7 kmh NE 11.0 mph17.7 kmh 30.88 in1045.7 mb 0.00 in0.0 mm 0.00 in0.0 mm 0.00 in0.0 mm
01:55 PM 28.6°F-1.9°C 14.9°F-9.5°C 56% 5.0 mph NE8.0 kmh NE 11.0 mph17.7 kmh 30.89 in1046.1 mb 0.00 in0.0 mm 0.00 in0.0 mm 0.00 in0.0 mm
01:50 PM 28.4°F-2.0°C 15.1°F-9.4°C 57% 5.0 mph NE8.0 kmh NE 11.0 mph17.7 kmh 30.88 in1045.7 mb 0.00 in0.0 mm 0.00 in0.0 mm 0.00 in0.0 mm
01:45 PM 28.6°F-1.9°C 15.7°F-9.1°C 58% 5.0 mph NE8.0 kmh NE 11.0 mph17.7 kmh 30.88 in1045.7 mb 0.00 in0.0 mm 0.00 in0.0 mm 0.00 in0.0 mm
01:40 PM 28.2°F-2.1°C 15.7°F-9.1°C 59% 6.0 mph NE9.7 kmh NE 10.0 mph16.1 kmh 30.89 in1046.1 mb 0.00 in0.0 mm 0.00 in0.0 mm 0.00 in0.0 mm
01:35 PM 28.2°F-2.1°C 15.3°F-9.3°C 58% 6.0 mph NE9.7 kmh NE 11.0 mph17.7 kmh 30.88 in1045.7 mb 0.00 in0.0 mm 0.00 in0.0 mm 0.00 in0.0 mm
01:30 PM 28.2°F-2.1°C 15.7°F-9.1°C 59% 6.0 mph NE9.7 kmh NE 11.0 mph17.7 kmh 30.89 in1046.1 mb 0.00 in0.0 mm 0.00 in0.0 mm 0.00 in0.0 mm
01:25 PM 28.2°F-2.1°C 15.3°F-9.3°C 58% 5.0 mph NE8.0 kmh NE 12.0 mph19.3 kmh 30.89 in1046.1 mb 0.00 in0.0 mm 0.00 in0.0 mm 0.00 in0.0 mm
01:20 PM 28.6°F-1.9°C 16.1°F-8.8°C 59% 5.0 mph NE8.0 kmh NE 12.0 mph19.3 kmh 30.90 in1046.4 mb 0.00 in0.0 mm 0.00 in0.0 mm 0.00 in0.0 mm
01:15 PM 28.6°F-1.9°C 16.1°F-8.8°C 59% 6.0 mph NE9.7 kmh NE 12.0 mph19.3 kmh 30.91 in1046.7 mb 0.00 in0.0 mm 0.00 in0.0 mm 0.00 in0.0 mm
01:10 PM 28.4°F-2.0°C 15.9°F-8.9°C 59% 6.0 mph NE9.7 kmh NE 12.0 mph19.3 kmh 30.90 in1046.4 mb 0.00 in0.0 mm 0.00 in0.0 mm 0.00 in0.0 mm
01:05 PM 28.2°F-2.1°C 14.9°F-9.5°C 57% 6.0 mph NE9.7 kmh NE 11.0 mph17.7 kmh 30.90 in1046.4 mb 0.00 in0.0 mm 0.00 in0.0 mm 0.00 in0.0 mm
01:00 PM 28.2°F-2.1°C 14.9°F-9.5°C 57% 7.0 mph NE11.3 kmh NE 11.0 mph17.7 kmh 30.91 in1046.7 mb 0.00 in0.0 mm 0.00 in0.0 mm 0.00 in0.0 mm
12:55 PM 28.2°F-2.1°C 14.9°F-9.5°C 57% 7.0 mph NE11.3 kmh NE 13.0 mph20.9 kmh 30.91 in1046.7 mb 0.00 in0.0 mm 0.00 in0.0 mm 0.00 in0.0 mm
12:50 PM 28.4°F-2.0°C 14.7°F-9.6°C 56% 7.0 mph NE11.3 kmh NE 13.0 mph20.9 kmh 30.92 in1047.1 mb 0.00 in0.0 mm 0.00 in0.0 mm 0.00 in0.0 mm
12:45 PM 28.2°F-2.1°C 14.9°F-9.5°C 57% 7.0 mph NE11.3 kmh NE 13.0 mph20.9 kmh 30.92 in1047.1 mb 0.00 in0.0 mm 0.00 in0.0 mm 0.00 in0.0 mm
12:40 PM 28.2°F-2.1°C 14.1°F-9.9°C 55% 8.0 mph NE12.9 kmh NE 13.0 mph20.9 kmh 30.92 in1047.1 mb 0.00 in0.0 mm 0.00 in0.0 mm 0.00 in0.0 mm
12:35 PM 28.6°F-1.9°C 15.3°F-9.3°C 57% 8.0 mph NE12.9 kmh NE 15.0 mph24.1 kmh 30.92 in1047.1 mb 0.00 in0.0 mm 0.00 in0.0 mm 0.00 in0.0 mm
12:30 PM 28.2°F-2.1°C 14.5°F-9.7°C 56% 8.0 mph NE12.9 kmh NE 15.0 mph24.1 kmh 30.93 in1047.4 mb 0.00 in0.0 mm 0.00 in0.0 mm 0.00 in0.0 mm
12:25 PM 28.4°F-2.0°C 14.7°F-9.6°C 56% 8.0 mph NE12.9 kmh NE 13.0 mph20.9 kmh 30.93 in1047.4 mb 0.00 in0.0 mm 0.00 in0.0 mm 0.00 in0.0 mm
12:20 PM 27.7°F-2.4°C 14.4°F-9.8°C 57% 8.0 mph NE12.9 kmh NE 14.0 mph22.5 kmh 30.93 in1047.4 mb 0.00 in0.0 mm 0.00 in0.0 mm 0.00 in0.0 mm
12:15 PM 27.7°F-2.4°C 14.0°F-10.0°C 56% 8.0 mph NE12.9 kmh NE 14.0 mph22.5 kmh 30.94 in1047.7 mb 0.00 in0.0 mm 0.00 in0.0 mm 0.00 in0.0 mm
12:10 PM 27.7°F-2.4°C 14.0°F-10.0°C 56% 8.0 mph NE12.9 kmh NE 13.0 mph20.9 kmh 30.93 in1047.4 mb 0.00 in0.0 mm 0.00 in0.0 mm 0.00 in0.0 mm
12:05 PM 27.5°F-2.5°C 13.8°F-10.1°C 56% 7.0 mph NE11.3 kmh NE 14.0 mph22.5 kmh 30.93 in1047.4 mb 0.00 in0.0 mm 0.00 in0.0 mm 0.00 in0.0 mm
12:00 PM 27.3°F-2.6°C 14.1°F-9.9°C 57% 7.0 mph NE11.3 kmh NE 14.0 mph22.5 kmh 30.93 in1047.4 mb 0.00 in0.0 mm 0.00 in0.0 mm 0.00 in0.0 mm
11:55 AM 27.5°F-2.5°C 13.8°F-10.1°C 56% 7.0 mph NE11.3 kmh NE 12.0 mph19.3 kmh 30.93 in1047.4 mb 0.00 in0.0 mm 0.00 in0.0 mm 0.00 in0.0 mm
11:50 AM 27.9°F-2.3°C 15.0°F-9.4°C 58% 8.0 mph NE12.9 kmh NE 16.0 mph25.7 kmh 30.93 in1047.4 mb 0.00 in0.0 mm 0.00 in0.0 mm 0.00 in0.0 mm
11:45 AM 27.7°F-2.4°C 13.6°F-10.2°C 55% 8.0 mph NE12.9 kmh NE 16.0 mph25.7 kmh 30.94 in1047.7 mb 0.00 in0.0 mm 0.00 in0.0 mm 0.00 in0.0 mm
11:40 AM 27.9°F-2.3°C 14.6°F-9.7°C 57% 8.0 mph NE12.9 kmh NE 14.0 mph22.5 kmh 30.94 in1047.7 mb 0.00 in0.0 mm 0.00 in0.0 mm 0.00 in0.0 mm
11:35 AM 27.9°F-2.3°C 15.4°F-9.2°C 59% 8.0 mph NE12.9 kmh NE 13.0 mph20.9 kmh 30.94 in1047.7 mb 0.00 in0.0 mm 0.00 in0.0 mm 0.00 in0.0 mm
11:30 AM 27.9°F-2.3°C 15.4°F-9.2°C 59% 8.0 mph NE12.9 kmh NE 13.0 mph20.9 kmh 30.94 in1047.7 mb 0.00 in0.0 mm 0.00 in0.0 mm 0.00 in0.0 mm
11:25 AM 28.0°F-2.2°C 15.2°F-9.3°C 58% 8.0 mph NE12.9 kmh NE 13.0 mph20.9 kmh 30.94 in1047.7 mb 0.00 in0.0 mm 0.00 in0.0 mm 0.00 in0.0 mm
11:20 AM 27.5°F-2.5°C 15.0°F-9.4°C 59% 8.0 mph NE12.9 kmh NE 14.0 mph22.5 kmh 30.93 in1047.4 mb 0.00 in0.0 mm 0.00 in0.0 mm 0.00 in0.0 mm
11:15 AM 27.1°F-2.7°C 15.5°F-9.2°C 61% 9.0 mph NE14.5 kmh NE 14.0 mph22.5 kmh 30.94 in1047.7 mb 0.00 in0.0 mm 0.00 in0.0 mm 0.00 in0.0 mm
11:10 AM 27.0°F-2.8°C 14.1°F-9.9°C 58% 9.0 mph NE14.5 kmh NE 14.0 mph22.5 kmh 30.95 in1048.1 mb 0.00 in0.0 mm 0.00 in0.0 mm 0.00 in0.0 mm
11:05 AM 27.1°F-2.7°C 14.3°F-9.8°C 58% 10.0 mph NE16.1 kmh NE 19.0 mph30.6 kmh 30.94 in1047.7 mb 0.00 in0.0 mm 0.00 in0.0 mm 0.00 in0.0 mm
11:00 AM 27.3°F-2.6°C 14.5°F-9.7°C 58% 9.0 mph NE14.5 kmh NE 19.0 mph30.6 kmh 30.94 in1047.7 mb 0.00 in0.0 mm 0.00 in0.0 mm 0.00 in0.0 mm
10:55 AM 27.3°F-2.6°C 14.5°F-9.7°C 58% 8.0 mph NE12.9 kmh NE 16.0 mph25.7 kmh 30.94 in1047.7 mb 0.00 in0.0 mm 0.00 in0.0 mm 0.00 in0.0 mm
10:50 AM 27.3°F-2.6°C 15.6°F-9.1°C 61% 8.0 mph NE12.9 kmh NE 13.0 mph20.9 kmh 30.94 in1047.7 mb 0.00 in0.0 mm 0.00 in0.0 mm 0.00 in0.0 mm
10:45 AM 27.1°F-2.7°C 15.8°F-9.0°C 62% 8.0 mph NE12.9 kmh NE 15.0 mph24.1 kmh 30.95 in1048.1 mb 0.00 in0.0 mm 0.00 in0.0 mm 0.00 in0.0 mm
10:40 AM 27.1°F-2.7°C 15.8°F-9.0°C 62% 7.0 mph NE11.3 kmh NE 15.0 mph24.1 kmh 30.95 in1048.1 mb 0.00 in0.0 mm 0.00 in0.0 mm 0.00 in0.0 mm
10:35 AM 27.3°F-2.6°C 16.7°F-8.5°C 64% 7.0 mph NE11.3 kmh NE 13.0 mph20.9 kmh 30.95 in1048.1 mb 0.00 in0.0 mm 0.00 in0.0 mm 0.00 in0.0 mm
10:30 AM 26.8°F-2.9°C 16.6°F-8.6°C 65% 8.0 mph NE12.9 kmh NE 12.0 mph19.3 kmh 30.94 in1047.7 mb 0.00 in0.0 mm 0.00 in0.0 mm 0.00 in0.0 mm
10:25 AM 26.2°F-3.2°C 16.1°F-8.8°C 65% 8.0 mph NE12.9 kmh NE 12.0 mph19.3 kmh 30.95 in1048.1 mb 0.00 in0.0 mm 0.00 in0.0 mm 0.00 in0.0 mm
10:20 AM 26.1°F-3.3°C 15.2°F-9.3°C 63% 7.0 mph NE11.3 kmh NE 14.0 mph22.5 kmh 30.96 in1048.4 mb 0.00 in0.0 mm 0.00 in0.0 mm 0.00 in0.0 mm
10:15 AM 25.7°F-3.5°C 15.2°F-9.3°C 64% 7.0 mph NE11.3 kmh NE 14.0 mph22.5 kmh 30.95 in1048.1 mb 0.00 in0.0 mm 0.00 in0.0 mm 0.00 in0.0 mm
10:10 AM 25.9°F-3.4°C 15.7°F-9.1°C 65% 6.0 mph NE9.7 kmh NE 11.0 mph17.7 kmh 30.95 in1048.1 mb 0.00 in0.0 mm 0.00 in0.0 mm 0.00 in0.0 mm
10:05 AM 25.9°F-3.4°C 15.7°F-9.1°C 65% 6.0 mph NE9.7 kmh NE 11.0 mph17.7 kmh 30.95 in1048.1 mb 0.00 in0.0 mm 0.00 in0.0 mm 0.00 in0.0 mm
10:00 AM 25.9°F-3.4°C 16.1°F-8.8°C 66% 7.0 mph NE11.3 kmh NE 11.0 mph17.7 kmh 30.94 in1047.7 mb 0.00 in0.0 mm 0.00 in0.0 mm 0.00 in0.0 mm
09:55 AM 25.3°F-3.7°C 15.6°F-9.1°C 66% 7.0 mph NE11.3 kmh NE 11.0 mph17.7 kmh 30.94 in1047.7 mb 0.00 in0.0 mm 0.00 in0.0 mm 0.00 in0.0 mm
09:50 AM 25.3°F-3.7°C 15.9°F-8.9°C 67% 7.0 mph NE11.3 kmh NE 12.0 mph19.3 kmh 30.94 in1047.7 mb 0.00 in0.0 mm 0.00 in0.0 mm 0.00 in0.0 mm
09:45 AM 25.2°F-3.8°C 15.7°F-9.1°C 67% 6.0 mph NE9.7 kmh NE 12.0 mph19.3 kmh 30.94 in1047.7 mb 0.00 in0.0 mm 0.00 in0.0 mm 0.00 in0.0 mm
09:40 AM 25.2°F-3.8°C 15.7°F-9.1°C 67% 6.0 mph NE9.7 kmh NE 11.0 mph17.7 kmh 30.94 in1047.7 mb 0.00 in0.0 mm 0.00 in0.0 mm 0.00 in0.0 mm
09:35 AM 25.0°F-3.9°C 15.9°F-8.9°C 68% 6.0 mph NE9.7 kmh NE 11.0 mph17.7 kmh 30.94 in1047.7 mb 0.00 in0.0 mm 0.00 in0.0 mm 0.00 in0.0 mm
09:30 AM 24.8°F-4.0°C 15.7°F-9.1°C 68% 6.0 mph NE9.7 kmh NE 11.0 mph17.7 kmh 30.94 in1047.7 mb 0.00 in0.0 mm 0.00 in0.0 mm 0.00 in0.0 mm
09:25 AM 24.6°F-4.1°C 15.9°F-8.9°C 69% 6.0 mph NE9.7 kmh NE 11.0 mph17.7 kmh 30.94 in1047.7 mb 0.00 in0.0 mm 0.00 in0.0 mm 0.00 in0.0 mm
09:20 AM 24.4°F-4.2°C 15.4°F-9.2°C 68% 6.0 mph NE9.7 kmh NE 10.0 mph16.1 kmh 30.94 in1047.7 mb 0.00 in0.0 mm 0.00 in0.0 mm 0.00 in0.0 mm
09:15 AM 24.3°F-4.3°C 15.5°F-9.2°C 69% 6.0 mph NE9.7 kmh NE 10.0 mph16.1 kmh 30.94 in1047.7 mb 0.00 in0.0 mm 0.00 in0.0 mm 0.00 in0.0 mm
09:10 AM 24.1°F-4.4°C 15.4°F-9.2°C 69% 6.0 mph NE9.7 kmh NE 10.0 mph16.1 kmh 30.94 in1047.7 mb 0.00 in0.0 mm 0.00 in0.0 mm 0.00 in0.0 mm
09:05 AM 24.1°F-4.4°C 15.4°F-9.2°C 69% 6.0 mph NE9.7 kmh NE 10.0 mph16.1 kmh 30.94 in1047.7 mb 0.00 in0.0 mm 0.00 in0.0 mm 0.00 in0.0 mm
09:00 AM 24.1°F-4.4°C 15.4°F-9.2°C 69% 6.0 mph NE9.7 kmh NE 11.0 mph17.7 kmh 30.94 in1047.7 mb 0.00 in0.0 mm 0.00 in0.0 mm 0.00 in0.0 mm
08:55 AM 23.9°F-4.5°C 15.2°F-9.3°C 69% 5.0 mph NE8.0 kmh NE 11.0 mph17.7 kmh 30.94 in1047.7 mb 0.00 in0.0 mm 0.00 in0.0 mm 0.00 in0.0 mm
08:50 AM 23.7°F-4.6°C 15.0°F-9.4°C 69% 4.0 mph NE6.4 kmh NE 10.0 mph16.1 kmh 30.94 in1047.7 mb 0.00 in0.0 mm 0.00 in0.0 mm 0.00 in0.0 mm
08:45 AM 23.5°F-4.7°C 14.9°F-9.5°C 69% 5.0 mph NE8.0 kmh NE 11.0 mph17.7 kmh 30.94 in1047.7 mb 0.00 in0.0 mm 0.00 in0.0 mm 0.00 in0.0 mm
08:40 AM 23.5°F-4.7°C 15.8°F-9.0°C 72% 5.0 mph NE8.0 kmh NE 11.0 mph17.7 kmh 30.94 in1047.7 mb 0.00 in0.0 mm 0.00 in0.0 mm 0.00 in0.0 mm
08:35 AM 23.2°F-4.9°C 15.2°F-9.3°C 71% 5.0 mph NE8.0 kmh NE 10.0 mph16.1 kmh 30.94 in1047.7 mb 0.00 in0.0 mm 0.00 in0.0 mm 0.00 in0.0 mm
08:30 AM 23.2°F-4.9°C 15.5°F-9.2°C 72% 4.0 mph NE6.4 kmh NE 14.0 mph22.5 kmh 30.94 in1047.7 mb 0.00 in0.0 mm 0.00 in0.0 mm 0.00 in0.0 mm
08:25 AM 23.0°F-5.0°C 15.0°F-9.4°C 71% 4.0 mph NE6.4 kmh NE 14.0 mph22.5 kmh 30.94 in1047.7 mb 0.00 in0.0 mm 0.00 in0.0 mm 0.00 in0.0 mm
08:20 AM 22.8°F-5.1°C 15.5°F-9.2°C 73% 4.0 mph NNE6.4 kmh NNE 9.0 mph14.5 kmh 30.93 in1047.4 mb 0.00 in0.0 mm 0.00 in0.0 mm 0.00 in0.0 mm
08:15 AM 22.6°F-5.2°C 15.3°F-9.3°C 73% 4.0 mph NNE6.4 kmh NNE 8.0 mph12.9 kmh 30.93 in1047.4 mb 0.00 in0.0 mm 0.00 in0.0 mm 0.00 in0.0 mm
08:10 AM 22.6°F-5.2°C 15.3°F-9.3°C 73% 4.0 mph NE6.4 kmh NE 9.0 mph14.5 kmh 30.92 in1047.1 mb 0.00 in0.0 mm 0.00 in0.0 mm 0.00 in0.0 mm
08:05 AM 22.5°F-5.3°C 15.1°F-9.4°C 73% 3.0 mph NE4.8 kmh NE 9.0 mph14.5 kmh 30.91 in1046.7 mb 0.00 in0.0 mm 0.00 in0.0 mm 0.00 in0.0 mm
08:00 AM 22.5°F-5.3°C 15.4°F-9.2°C 74% 3.0 mph NE4.8 kmh NE 9.0 mph14.5 kmh 30.91 in1046.7 mb 0.00 in0.0 mm 0.00 in0.0 mm 0.00 in0.0 mm
07:55 AM 22.3°F-5.4°C 15.2°F-9.3°C 74% 3.0 mph NE4.8 kmh NE 9.0 mph14.5 kmh 30.91 in1046.7 mb 0.00 in0.0 mm 0.00 in0.0 mm 0.00 in0.0 mm
07:50 AM 22.1°F-5.5°C 15.1°F-9.4°C 74% 2.0 mph N3.2 kmh N 7.0 mph11.3 kmh 30.92 in1047.1 mb 0.00 in0.0 mm 0.00 in0.0 mm 0.00 in0.0 mm
07:45 AM 21.7°F-5.7°C 15.0°F-9.4°C 75% 2.0 mph N3.2 kmh N 7.0 mph11.3 kmh 30.92 in1047.1 mb 0.00 in0.0 mm 0.00 in0.0 mm 0.00 in0.0 mm
07:40 AM 21.7°F-5.7°C 15.0°F-9.4°C 75% 2.0 mph N3.2 kmh N 7.0 mph11.3 kmh 30.91 in1046.7 mb 0.00 in0.0 mm 0.00 in0.0 mm 0.00 in0.0 mm
07:35 AM 21.4°F-5.9°C 14.7°F-9.6°C 75% 3.0 mph N4.8 kmh N 7.0 mph11.3 kmh 30.91 in1046.7 mb 0.00 in0.0 mm 0.00 in0.0 mm 0.00 in0.0 mm
07:30 AM 21.2°F-6.0°C 14.5°F-9.7°C 75% 3.0 mph N4.8 kmh N 8.0 mph12.9 kmh 30.91 in1046.7 mb 0.00 in0.0 mm 0.00 in0.0 mm 0.00 in0.0 mm
07:25 AM 20.8°F-6.2°C 14.5°F-9.7°C 76% 3.0 mph N4.8 kmh N 8.0 mph12.9 kmh 30.91 in1046.7 mb 0.00 in0.0 mm 0.00 in0.0 mm 0.00 in0.0 mm
07:20 AM 20.7°F-6.3°C 14.3°F-9.8°C 76% 3.0 mph NNW4.8 kmh NNW 7.0 mph11.3 kmh 30.91 in1046.7 mb 0.00 in0.0 mm 0.00 in0.0 mm 0.00 in0.0 mm
07:15 AM 20.5°F-6.4°C 14.1°F-9.9°C 76% 2.0 mph NNW3.2 kmh NNW 7.0 mph11.3 kmh 30.90 in1046.4 mb 0.00 in0.0 mm 0.00 in0.0 mm 0.00 in0.0 mm
07:10 AM 20.1°F-6.6°C 13.8°F-10.1°C 76% 2.0 mph NNW3.2 kmh NNW 7.0 mph11.3 kmh 30.90 in1046.4 mb 0.00 in0.0 mm 0.00 in0.0 mm 0.00 in0.0 mm
07:05 AM 20.1°F-6.6°C 13.8°F-10.1°C 76% 3.0 mph N4.8 kmh N 7.0 mph11.3 kmh 30.91 in1046.7 mb 0.00 in0.0 mm 0.00 in0.0 mm 0.00 in0.0 mm
07:00 AM 19.9°F-6.7°C 13.6°F-10.2°C 76% 3.0 mph N4.8 kmh N 7.0 mph11.3 kmh 30.90 in1046.4 mb 0.00 in0.0 mm 0.00 in0.0 mm 0.00 in0.0 mm
06:55 AM 20.1°F-6.6°C 13.8°F-10.1°C 76% 3.0 mph N4.8 kmh N 7.0 mph11.3 kmh 30.90 in1046.4 mb 0.00 in0.0 mm 0.00 in0.0 mm 0.00 in0.0 mm
06:50 AM 20.3°F-6.5°C 13.9°F-10.1°C 76% 3.0 mph NNE4.8 kmh NNE 8.0 mph12.9 kmh 30.90 in1046.4 mb 0.00 in0.0 mm 0.00 in0.0 mm 0.00 in0.0 mm
06:45 AM 20.5°F-6.4°C 13.8°F-10.1°C 75% 3.0 mph NE4.8 kmh NE 8.0 mph12.9 kmh 30.89 in1046.1 mb 0.00 in0.0 mm 0.00 in0.0 mm 0.00 in0.0 mm
06:40 AM 20.5°F-6.4°C 13.8°F-10.1°C 75% 4.0 mph NE6.4 kmh NE 8.0 mph12.9 kmh 30.89 in1046.1 mb 0.00 in0.0 mm 0.00 in0.0 mm 0.00 in0.0 mm
06:35 AM 20.5°F-6.4°C 13.8°F-10.1°C 75% 4.0 mph NE6.4 kmh NE 9.0 mph14.5 kmh 30.89 in1046.1 mb 0.00 in0.0 mm 0.00 in0.0 mm 0.00 in0.0 mm
06:30 AM 20.7°F-6.3°C 14.0°F-10.0°C 75% 4.0 mph NE6.4 kmh NE 9.0 mph14.5 kmh 30.89 in1046.1 mb 0.00 in0.0 mm 0.00 in0.0 mm 0.00 in0.0 mm
06:25 AM 20.7°F-6.3°C 14.0°F-10.0°C 75% 4.0 mph NNE6.4 kmh NNE 9.0 mph14.5 kmh 30.89 in1046.1 mb 0.00 in0.0 mm 0.00 in0.0 mm 0.00 in0.0 mm
06:20 AM 20.7°F-6.3°C 14.0°F-10.0°C 75% 4.0 mph NE6.4 kmh NE 9.0 mph14.5 kmh 30.89 in1046.1 mb 0.00 in0.0 mm 0.00 in0.0 mm 0.00 in0.0 mm
06:15 AM 20.7°F-6.3°C 14.0°F-10.0°C 75% 3.0 mph NE4.8 kmh NE 8.0 mph12.9 kmh 30.89 in1046.1 mb 0.00 in0.0 mm 0.00 in0.0 mm 0.00 in0.0 mm
06:10 AM 20.7°F-6.3°C 14.0°F-10.0°C 75% 3.0 mph NE4.8 kmh NE 7.0 mph11.3 kmh 30.88 in1045.7 mb 0.00 in0.0 mm 0.00 in0.0 mm 0.00 in0.0 mm
06:05 AM 20.5°F-6.4°C 13.8°F-10.1°C 75% 4.0 mph NE6.4 kmh NE 7.0 mph11.3 kmh 30.88 in1045.7 mb 0.00 in0.0 mm 0.00 in0.0 mm 0.00 in0.0 mm
06:00 AM 20.7°F-6.3°C 14.0°F-10.0°C 75% 4.0 mph NE6.4 kmh NE 7.0 mph11.3 kmh 30.88 in1045.7 mb 0.00 in0.0 mm 0.00 in0.0 mm 0.00 in0.0 mm
05:55 AM 20.8°F-6.2°C 13.9°F-10.1°C 74% 4.0 mph NE6.4 kmh NE 9.0 mph14.5 kmh 30.88 in1045.7 mb 0.00 in0.0 mm 0.00 in0.0 mm 0.00 in0.0 mm
05:50 AM 20.7°F-6.3°C 14.0°F-10.0°C 75% 4.0 mph NE6.4 kmh NE 9.0 mph14.5 kmh 30.88 in1045.7 mb 0.00 in0.0 mm 0.00 in0.0 mm 0.00 in0.0 mm
05:45 AM 20.8°F-6.2°C 13.9°F-10.1°C 74% 4.0 mph NE6.4 kmh NE 8.0 mph12.9 kmh 30.88 in1045.7 mb 0.00 in0.0 mm 0.00 in0.0 mm 0.00 in0.0 mm
05:30 AM 20.8°F-6.2°C 14.1°F-9.9°C 75% 4.0 mph NE6.4 kmh NE 10.0 mph16.1 kmh 30.88 in1045.7 mb 0.00 in0.0 mm 0.00 in0.0 mm 0.00 in0.0 mm
05:25 AM 20.8°F-6.2°C 14.1°F-9.9°C 75% 3.0 mph NE4.8 kmh NE 10.0 mph16.1 kmh 30.88 in1045.7 mb 0.00 in0.0 mm 0.00 in0.0 mm 0.00 in0.0 mm
05:20 AM 20.8°F-6.2°C 14.1°F-9.9°C 75% 3.0 mph NE4.8 kmh NE 9.0 mph14.5 kmh 30.87 in1045.4 mb 0.00 in0.0 mm 0.00 in0.0 mm 0.00 in0.0 mm
05:15 AM 20.8°F-6.2°C 14.1°F-9.9°C 75% 3.0 mph NE4.8 kmh NE 8.0 mph12.9 kmh 30.88 in1045.7 mb 0.00 in0.0 mm 0.00 in0.0 mm 0.00 in0.0 mm
05:10 AM 20.8°F-6.2°C 14.1°F-9.9°C 75% 3.0 mph NE4.8 kmh NE 7.0 mph11.3 kmh 30.88 in1045.7 mb 0.00 in0.0 mm 0.00 in0.0 mm 0.00 in0.0 mm
05:05 AM 20.9°F-6.2°C 13.9°F-10.1°C 74% 3.0 mph NE4.8 kmh NE 7.0 mph11.3 kmh 30.88 in1045.7 mb 0.00 in0.0 mm 0.00 in0.0 mm 0.00 in0.0 mm
05:00 AM 21.0°F-6.1°C 14.0°F-10.0°C 74% 3.0 mph NE4.8 kmh NE 9.0 mph14.5 kmh 30.87 in1045.4 mb 0.00 in0.0 mm 0.00 in0.0 mm 0.00 in0.0 mm
04:55 AM 21.1°F-6.1°C 14.1°F-9.9°C 74% 4.0 mph NE6.4 kmh NE 10.0 mph16.1 kmh 30.87 in1045.4 mb 0.00 in0.0 mm 0.00 in0.0 mm 0.00 in0.0 mm
04:50 AM 21.1°F-6.1°C 14.1°F-9.9°C 74% 5.0 mph NE8.0 kmh NE 10.0 mph16.1 kmh 30.87 in1045.4 mb 0.00 in0.0 mm 0.00 in0.0 mm 0.00 in0.0 mm
04:45 AM 21.1°F-6.1°C 13.8°F-10.1°C 73% 4.0 mph NE6.4 kmh NE 10.0 mph16.1 kmh 30.87 in1045.4 mb 0.00 in0.0 mm 0.00 in0.0 mm 0.00 in0.0 mm
04:40 AM 21.2°F-6.0°C 14.2°F-9.9°C 74% 4.0 mph NE6.4 kmh NE 10.0 mph16.1 kmh 30.88 in1045.7 mb 0.00 in0.0 mm 0.00 in0.0 mm 0.00 in0.0 mm
04:35 AM 21.2°F-6.0°C 14.2°F-9.9°C 74% 4.0 mph NE6.4 kmh NE 10.0 mph16.1 kmh 30.88 in1045.7 mb 0.00 in0.0 mm 0.00 in0.0 mm 0.00 in0.0 mm
04:30 AM 21.2°F-6.0°C 14.2°F-9.9°C 74% 4.0 mph NE6.4 kmh NE 10.0 mph16.1 kmh 30.88 in1045.7 mb 0.00 in0.0 mm 0.00 in0.0 mm 0.00 in0.0 mm
04:25 AM 21.3°F-5.9°C 14.3°F-9.8°C 74% 4.0 mph NE6.4 kmh NE 11.0 mph17.7 kmh 30.88 in1045.7 mb 0.00 in0.0 mm 0.00 in0.0 mm 0.00 in0.0 mm
04:20 AM 21.3°F-5.9°C 14.3°F-9.8°C 74% 4.0 mph NE6.4 kmh NE 11.0 mph17.7 kmh 30.88 in1045.7 mb 0.00 in0.0 mm 0.00 in0.0 mm 0.00 in0.0 mm
04:15 AM 21.4°F-5.9°C 14.4°F-9.8°C 74% 5.0 mph NE8.0 kmh NE 11.0 mph17.7 kmh 30.88 in1045.7 mb 0.00 in0.0 mm 0.00 in0.0 mm 0.00 in0.0 mm
04:10 AM 21.4°F-5.9°C 14.4°F-9.8°C 74% 5.0 mph NE8.0 kmh NE 9.0 mph14.5 kmh 30.88 in1045.7 mb 0.00 in0.0 mm 0.00 in0.0 mm 0.00 in0.0 mm
04:05 AM 21.4°F-5.9°C 14.4°F-9.8°C 74% 5.0 mph NE8.0 kmh NE 12.0 mph19.3 kmh 30.88 in1045.7 mb 0.00 in0.0 mm 0.00 in0.0 mm 0.00 in0.0 mm
04:00 AM 21.5°F-5.8°C 14.2°F-9.9°C 73% 6.0 mph NE9.7 kmh NE 12.0 mph19.3 kmh 30.88 in1045.7 mb 0.00 in0.0 mm 0.00 in0.0 mm 0.00 in0.0 mm
03:55 AM 21.4°F-5.9°C 14.1°F-9.9°C 73% 6.0 mph NE9.7 kmh NE 10.0 mph16.1 kmh 30.88 in1045.7 mb 0.00 in0.0 mm 0.00 in0.0 mm 0.00 in0.0 mm
03:50 AM 21.4°F-5.9°C 14.4°F-9.8°C 74% 4.0 mph NE6.4 kmh NE 11.0 mph17.7 kmh 30.88 in1045.7 mb 0.00 in0.0 mm 0.00 in0.0 mm 0.00 in0.0 mm
03:45 AM 21.3°F-5.9°C 14.3°F-9.8°C 74% 4.0 mph NE6.4 kmh NE 11.0 mph17.7 kmh 30.87 in1045.4 mb 0.00 in0.0 mm 0.00 in0.0 mm 0.00 in0.0 mm
03:40 AM 21.3°F-5.9°C 14.3°F-9.8°C 74% 4.0 mph NE6.4 kmh NE 12.0 mph19.3 kmh 30.88 in1045.7 mb 0.00 in0.0 mm 0.00 in0.0 mm 0.00 in0.0 mm
03:35 AM 21.5°F-5.8°C 14.5°F-9.7°C 74% 4.0 mph NE6.4 kmh NE 12.0 mph19.3 kmh 30.88 in1045.7 mb 0.00 in0.0 mm 0.00 in0.0 mm 0.00 in0.0 mm
03:30 AM 21.5°F-5.8°C 14.2°F-9.9°C 73% 4.0 mph NE6.4 kmh NE 11.0 mph17.7 kmh 30.88 in1045.7 mb 0.00 in0.0 mm 0.00 in0.0 mm 0.00 in0.0 mm
03:25 AM 21.5°F-5.8°C 14.2°F-9.9°C 73% 5.0 mph NE8.0 kmh NE 12.0 mph19.3 kmh 30.87 in1045.4 mb 0.00 in0.0 mm 0.00 in0.0 mm 0.00 in0.0 mm
03:20 AM 21.5°F-5.8°C 14.2°F-9.9°C 73% 4.0 mph NE6.4 kmh NE 12.0 mph19.3 kmh 30.88 in1045.7 mb 0.00 in0.0 mm 0.00 in0.0 mm 0.00 in0.0 mm
03:15 AM 21.5°F-5.8°C 14.2°F-9.9°C 73% 4.0 mph NE6.4 kmh NE 10.0 mph16.1 kmh 30.87 in1045.4 mb 0.00 in0.0 mm 0.00 in0.0 mm 0.00 in0.0 mm
03:10 AM 21.6°F-5.8°C 14.3°F-9.8°C 73% 4.0 mph NE6.4 kmh NE 10.0 mph16.1 kmh 30.87 in1045.4 mb 0.00 in0.0 mm 0.00 in0.0 mm 0.00 in0.0 mm
03:05 AM 21.5°F-5.8°C 14.2°F-9.9°C 73% 5.0 mph NE8.0 kmh NE 10.0 mph16.1 kmh 30.87 in1045.4 mb 0.00 in0.0 mm 0.00 in0.0 mm 0.00 in0.0 mm
03:00 AM 21.6°F-5.8°C 14.0°F-10.0°C 72% 5.0 mph NE8.0 kmh NE 10.0 mph16.1 kmh 30.87 in1045.4 mb 0.00 in0.0 mm 0.00 in0.0 mm 0.00 in0.0 mm
02:55 AM 21.6°F-5.8°C 14.0°F-10.0°C 72% 4.0 mph NE6.4 kmh NE 10.0 mph16.1 kmh 30.87 in1045.4 mb 0.00 in0.0 mm 0.00 in0.0 mm 0.00 in0.0 mm
02:50 AM 21.6°F-5.8°C 14.0°F-10.0°C 72% 4.0 mph NE6.4 kmh NE 10.0 mph16.1 kmh 30.87 in1045.4 mb 0.00 in0.0 mm 0.00 in0.0 mm 0.00 in0.0 mm
02:45 AM 21.7°F-5.7°C 14.1°F-9.9°C 72% 4.0 mph NE6.4 kmh NE 10.0 mph16.1 kmh 30.87 in1045.4 mb 0.00 in0.0 mm 0.00 in0.0 mm 0.00 in0.0 mm
02:40 AM 21.7°F-5.7°C 14.1°F-9.9°C 72% 4.0 mph NE6.4 kmh NE 9.0 mph14.5 kmh 30.87 in1045.4 mb 0.00 in0.0 mm 0.00 in0.0 mm 0.00 in0.0 mm
02:35 AM 21.8°F-5.7°C 13.8°F-10.1°C 71% 4.0 mph NE6.4 kmh NE 11.0 mph17.7 kmh 30.87 in1045.4 mb 0.00 in0.0 mm 0.00 in0.0 mm 0.00 in0.0 mm
02:30 AM 21.9°F-5.6°C 13.9°F-10.1°C 71% 4.0 mph NE6.4 kmh NE 11.0 mph17.7 kmh 30.86 in1045.0 mb 0.00 in0.0 mm 0.00 in0.0 mm 0.00 in0.0 mm
02:25 AM 22.0°F-5.6°C 14.0°F-10.0°C 71% 6.0 mph NE9.7 kmh NE 11.0 mph17.7 kmh 30.86 in1045.0 mb 0.00 in0.0 mm 0.00 in0.0 mm 0.00 in0.0 mm
02:20 AM 22.0°F-5.6°C 14.0°F-10.0°C 71% 5.0 mph NE8.0 kmh NE 10.0 mph16.1 kmh 30.86 in1045.0 mb 0.00 in0.0 mm 0.00 in0.0 mm 0.00 in0.0 mm
02:15 AM 22.1°F-5.5°C 14.1°F-9.9°C 71% 5.0 mph NE8.0 kmh NE 10.0 mph16.1 kmh 30.86 in1045.0 mb 0.00 in0.0 mm 0.00 in0.0 mm 0.00 in0.0 mm
02:10 AM 22.1°F-5.5°C 14.1°F-9.9°C 71% 5.0 mph NE8.0 kmh NE 10.0 mph16.1 kmh 30.86 in1045.0 mb 0.00 in0.0 mm 0.00 in0.0 mm 0.00 in0.0 mm
02:05 AM 22.1°F-5.5°C 14.1°F-9.9°C 71% 6.0 mph NE9.7 kmh NE 11.0 mph17.7 kmh 30.86 in1045.0 mb 0.00 in0.0 mm 0.00 in0.0 mm 0.00 in0.0 mm
02:00 AM 22.1°F-5.5°C 14.1°F-9.9°C 71% 6.0 mph NE9.7 kmh NE 11.0 mph17.7 kmh 30.86 in1045.0 mb 0.00 in0.0 mm 0.00 in0.0 mm 0.00 in0.0 mm
01:55 AM 22.2°F-5.4°C 14.2°F-9.9°C 71% 6.0 mph NE9.7 kmh NE 13.0 mph20.9 kmh 30.86 in1045.0 mb 0.00 in0.0 mm 0.00 in0.0 mm 0.00 in0.0 mm
01:50 AM 22.3°F-5.4°C 14.0°F-10.0°C 70% 6.0 mph NE9.7 kmh NE 13.0 mph20.9 kmh 30.85 in1044.7 mb 0.00 in0.0 mm 0.00 in0.0 mm 0.00 in0.0 mm
01:45 AM 22.3°F-5.4°C 14.0°F-10.0°C 70% 6.0 mph NE9.7 kmh NE 13.0 mph20.9 kmh 30.86 in1045.0 mb 0.00 in0.0 mm 0.00 in0.0 mm 0.00 in0.0 mm
01:40 AM 22.4°F-5.3°C 14.1°F-9.9°C 70% 7.0 mph NE11.3 kmh NE 13.0 mph20.9 kmh 30.86 in1045.0 mb 0.00 in0.0 mm 0.00 in0.0 mm 0.00 in0.0 mm
01:35 AM 22.4°F-5.3°C 14.1°F-9.9°C 70% 6.0 mph NE9.7 kmh NE 12.0 mph19.3 kmh 30.86 in1045.0 mb 0.00 in0.0 mm 0.00 in0.0 mm 0.00 in0.0 mm
01:30 AM 22.5°F-5.3°C 14.2°F-9.9°C 70% 6.0 mph NE9.7 kmh NE 12.0 mph19.3 kmh 30.86 in1045.0 mb 0.00 in0.0 mm 0.00 in0.0 mm 0.00 in0.0 mm
01:25 AM 22.6°F-5.2°C 14.3°F-9.8°C 70% 6.0 mph NE9.7 kmh NE 16.0 mph25.7 kmh 30.86 in1045.0 mb 0.00 in0.0 mm 0.00 in0.0 mm 0.00 in0.0 mm
01:20 AM 22.7°F-5.2°C 14.1°F-9.9°C 69% 6.0 mph NE9.7 kmh NE 16.0 mph25.7 kmh 30.86 in1045.0 mb 0.00 in0.0 mm 0.00 in0.0 mm 0.00 in0.0 mm
01:15 AM 22.6°F-5.2°C 14.3°F-9.8°C 70% 6.0 mph NE9.7 kmh NE 13.0 mph20.9 kmh 30.86 in1045.0 mb 0.00 in0.0 mm 0.00 in0.0 mm 0.00 in0.0 mm
01:10 AM 22.7°F-5.2°C 14.1°F-9.9°C 69% 6.0 mph NE9.7 kmh NE 14.0 mph22.5 kmh 30.86 in1045.0 mb 0.00 in0.0 mm 0.00 in0.0 mm 0.00 in0.0 mm
01:05 AM 22.8°F-5.1°C 13.8°F-10.1°C 68% 6.0 mph NE9.7 kmh NE 14.0 mph22.5 kmh 30.86 in1045.0 mb 0.00 in0.0 mm 0.00 in0.0 mm 0.00 in0.0 mm
01:00 AM 22.8°F-5.1°C 13.8°F-10.1°C 68% 6.0 mph NE9.7 kmh NE 12.0 mph19.3 kmh 30.85 in1044.7 mb 0.00 in0.0 mm 0.00 in0.0 mm 0.00 in0.0 mm
12:55 AM 22.9°F-5.1°C 13.9°F-10.1°C 68% 6.0 mph NE9.7 kmh NE 11.0 mph17.7 kmh 30.86 in1045.0 mb 0.00 in0.0 mm 0.00 in0.0 mm 0.00 in0.0 mm
12:50 AM 22.9°F-5.1°C 13.9°F-10.1°C 68% 8.0 mph NE12.9 kmh NE 15.0 mph24.1 kmh 30.86 in1045.0 mb 0.00 in0.0 mm 0.00 in0.0 mm 0.00 in0.0 mm
12:45 AM 23.1°F-4.9°C 13.8°F-10.1°C 67% 8.0 mph NE12.9 kmh NE 15.0 mph24.1 kmh 30.86 in1045.0 mb 0.00 in0.0 mm 0.00 in0.0 mm 0.00 in0.0 mm
12:40 AM 23.2°F-4.9°C 13.5°F-10.3°C 66% 9.0 mph NE14.5 kmh NE 15.0 mph24.1 kmh 30.86 in1045.0 mb 0.00 in0.0 mm 0.00 in0.0 mm 0.00 in0.0 mm
12:35 AM 23.2°F-4.9°C 13.5°F-10.3°C 66% 9.0 mph NE14.5 kmh NE 15.0 mph24.1 kmh 30.85 in1044.7 mb 0.00 in0.0 mm 0.00 in0.0 mm 0.00 in0.0 mm
12:30 AM 23.3°F-4.8°C 13.6°F-10.2°C 66% 8.0 mph NE12.9 kmh NE 14.0 mph22.5 kmh 30.85 in1044.7 mb 0.00 in0.0 mm 0.00 in0.0 mm 0.00 in0.0 mm
12:25 AM 23.3°F-4.8°C 13.6°F-10.2°C 66% 8.0 mph NE12.9 kmh NE 13.0 mph20.9 kmh 30.85 in1044.7 mb 0.00 in0.0 mm 0.00 in0.0 mm 0.00 in0.0 mm
12:20 AM 23.4°F-4.8°C 13.7°F-10.2°C 66% 10.0 mph NE16.1 kmh NE 16.0 mph25.7 kmh 30.85 in1044.7 mb 0.00 in0.0 mm 0.00 in0.0 mm 0.00 in0.0 mm
12:15 AM 23.5°F-4.7°C 13.1°F-10.5°C 64% 11.0 mph NE17.7 kmh NE 18.0 mph29.0 kmh 30.85 in1044.7 mb 0.00 in0.0 mm 0.00 in0.0 mm 0.00 in0.0 mm
12:10 AM 23.5°F-4.7°C 13.1°F-10.5°C 64% 10.0 mph NE16.1 kmh NE 18.0 mph29.0 kmh 30.85 in1044.7 mb 0.00 in0.0 mm 0.00 in0.0 mm 0.00 in0.0 mm
12:05 AM 23.6°F-4.7°C 13.5°F-10.3°C 65% 10.0 mph NE16.1 kmh NE 18.0 mph29.0 kmh 30.85 in1044.7 mb 0.00 in0.0 mm 0.00 in0.0 mm 0.00 in0.0 mm
12:00 AM 23.7°F-4.6°C 13.6°F-10.2°C 65% 10.0 mph NE16.1 kmh NE 18.0 mph29.0 kmh 30.85 in1044.7 mb 0.00 in0.0 mm 0.00 in0.0 mm 0.17 in4.3 mm